Elkview, PA

12:01 AM EDT on July 25, 2017 (GMT -0400)
MD3592 | | Change Station

Elev 449 ft 39.80 °N, 75.90 °W | Updated 69 days ago

Overcast
Overcast
59.0 °F
Feels Like 59.0 °F
N
3.0
Wind Variable Wind from NW

Today
High -- | Low -- °F
--% Chance of Precip.
Yesterday
High -- | Low -- °F
Precip. -- in
Pressure 29.91 in
Visibility 10.0 miles
Clouds Few 700 ft
Mostly Cloudy 7500 ft
Mostly Cloudy 11000 ft
Dew Point 49.0 °F
Humidity 69%
Rainfall 0.48 in
Snow Depth Not available.
5:56 AM 8:23 PM
Waxing Crescent, 4% visible
METAR KILG 250351Z 10003KT 10SM FEW007 BKN075 BKN110 22/21 A2992 RMK AO2 LTG DSNT E AND SE RAE22 SLP129 P0002 T02170211
Pressure 29.91 in
Visibility 10.0 miles
Clouds Few 700 ft
Mostly Cloudy 7500 ft
Mostly Cloudy 11000 ft
Dew Point 49.0 °F
Humidity 69%
Rainfall 0.48 in
Snow Depth Not available.
5:56 AM 8:23 PM
Waxing Crescent, 4% visible
METAR KILG 250351Z 10003KT 10SM FEW007 BKN075 BKN110 22/21 A2992 RMK AO2 LTG DSNT E AND SE RAE22 SLP129 P0002 T02170211

Get Severe Weather Alerts

Thanks for signing up!

Be on the lookout for a verification email in your inbox.

You'll start receiving the daily forecast at 6 AM.

×

10-Day Weather Forecast

Almanac

Astronomy

Jul. 25, 2017 Rise Set
Actual Time
Civil Twilight
Nautical Twilight
Astronomical Twilight
Moon
Length of Visible Light
Length of Day
Tomorrow will be .
, % of the Moon is Illuminated

Today's Extremes

State Highs State Lows

Community

WunderPhotos

Category 6

Welcome to Category 6. This is the collective home for Weather Underground's featured writeups by Dr. Jeff Masters (right), Bob Henson (left), Chris Burt, and other regular contributors.

Nearby

Air Quality

  Air Quality AQ Index Pollutant
Not available.

Snow Depth

Station Depth Elevation

Earthquake Activity

City Distance Mag. Time & Date
Minimum magnitude displayed is 2.5.

Coastal Water Temperatures

Place Temperature

Stations

Nearby Weather Stations

Station Location Temp. Windchill Dew Point Humidity Wind Precip. Elev Updated Type
                   

Watches & Warnings

There are currently no watches in effect.